createdAt,value
2018-12-18T00:00:07.662Z,98.25
2018-12-18T00:02:33.807Z,98.42
2018-12-18T00:05:01.995Z,98.53
2018-12-18T00:07:28.130Z,98.33
2018-12-18T00:09:54.259Z,98.34
2018-12-18T00:12:20.376Z,98.56
2018-12-18T00:14:46.508Z,98.35
2018-12-18T00:17:12.654Z,98.34
2018-12-18T00:19:38.792Z,98.25
2018-12-18T00:22:05.779Z,98.51
2018-12-18T00:24:31.898Z,98.27
2018-12-18T00:26:58.060Z,98.50
2018-12-18T00:29:24.288Z,98.40
2018-12-18T00:31:50.434Z,98.21
2018-12-18T00:34:16.582Z,98.29
2018-12-18T00:36:42.739Z,98.31
2018-12-18T00:39:10.898Z,98.63
2018-12-18T00:41:37.023Z,98.72
2018-12-18T00:44:03.310Z,98.46
2018-12-18T00:46:29.454Z,98.52
2018-12-18T00:48:55.583Z,98.58
2018-12-18T00:51:21.699Z,98.87
2018-12-18T00:53:47.827Z,98.49
2018-12-18T00:56:13.975Z,98.96
2018-12-18T00:58:40.100Z,98.95
2018-12-18T01:01:06.227Z,98.51
2018-12-18T01:03:32.342Z,98.88
2018-12-18T01:05:58.498Z,98.84
2018-12-18T01:08:24.654Z,99.00
2018-12-18T01:10:50.768Z,98.61
2018-12-18T01:13:16.935Z,98.78
2018-12-18T01:15:43.094Z,99.08
2018-12-18T01:18:09.248Z,98.92
2018-12-18T01:20:35.375Z,98.76
2018-12-18T01:23:01.499Z,98.96
2018-12-18T01:25:27.616Z,98.95
2018-12-18T01:27:53.759Z,98.93
2018-12-18T01:30:19.874Z,98.99
2018-12-18T01:32:46.001Z,99.14
2018-12-18T01:35:12.132Z,99.27
2018-12-18T01:37:38.277Z,99.09
2018-12-18T01:40:04.836Z,99.29
2018-12-18T01:42:30.975Z,99.26
2018-12-18T01:44:57.117Z,99.29
2018-12-18T01:47:23.260Z,99.00
2018-12-18T01:49:49.368Z,99.34
2018-12-18T01:52:15.510Z,99.14
2018-12-18T01:54:41.616Z,99.44
2018-12-18T01:57:07.764Z,99.40
2018-12-18T01:59:33.876Z,99.06
2018-12-18T02:01:59.996Z,99.10
2018-12-18T02:04:26.131Z,98.96
2018-12-18T02:06:52.249Z,98.96
2018-12-18T02:09:18.404Z,99.52
2018-12-18T02:11:44.646Z,99.06
2018-12-18T02:14:10.799Z,99.26
2018-12-18T02:16:36.914Z,98.84
2018-12-18T02:19:03.055Z,99.04
2018-12-18T02:21:29.192Z,99.28
2018-12-18T02:23:55.334Z,99.18
2018-12-18T02:26:21.449Z,99.36
2018-12-18T02:28:47.590Z,99.28
2018-12-18T02:31:13.724Z,99.05
2018-12-18T02:33:39.860Z,99.24
2018-12-18T02:36:05.988Z,99.17
2018-12-18T02:38:32.195Z,99.05
2018-12-18T02:40:58.333Z,98.98
2018-12-18T02:43:24.485Z,98.92
2018-12-18T02:45:50.597Z,99.01
2018-12-18T02:48:17.367Z,98.96
2018-12-18T02:50:43.514Z,99.09
2018-12-18T02:53:09.671Z,99.17
2018-12-18T02:55:35.839Z,99.01
2018-12-18T02:58:01.984Z,99.33
2018-12-18T03:00:28.115Z,99.10
2018-12-18T03:02:54.235Z,99.31
2018-12-18T03:05:20.645Z,99.17
2018-12-18T03:07:46.787Z,98.97
2018-12-18T03:10:13.042Z,99.23
2018-12-18T03:12:39.151Z,98.92
2018-12-18T03:15:05.571Z,99.14
2018-12-18T03:17:31.713Z,98.90
2018-12-18T03:19:57.831Z,99.07
2018-12-18T03:22:23.990Z,98.97
2018-12-18T03:24:50.150Z,98.92
2018-12-18T03:27:16.266Z,99.19
2018-12-18T03:29:42.409Z,99.23
2018-12-18T03:32:10.572Z,99.28
2018-12-18T03:34:36.700Z,98.90
2018-12-18T03:37:02.851Z,99.01
2018-12-18T03:39:29.099Z,99.20
2018-12-18T03:41:55.462Z,98.89
2018-12-18T03:44:21.584Z,98.88
2018-12-18T03:46:47.727Z,98.95
2018-12-18T03:49:13.844Z,99.03
2018-12-18T03:51:39.996Z,98.94
2018-12-18T03:54:06.147Z,99.14
2018-12-18T03:56:32.298Z,98.73
2018-12-18T03:58:58.426Z,98.75
2018-12-18T04:01:24.541Z,99.10
2018-12-18T04:03:50.846Z,98.78
2018-12-18T04:06:17.063Z,99.10
2018-12-18T04:08:43.191Z,99.17
2018-12-18T04:11:09.349Z,98.92
2018-12-18T04:13:35.494Z,98.75
2018-12-18T04:16:01.623Z,98.96
2018-12-18T04:18:27.771Z,98.87
2018-12-18T04:20:53.908Z,99.04
2018-12-18T04:23:20.063Z,99.20
2018-12-18T04:25:46.201Z,98.76
2018-12-18T04:28:12.335Z,99.05
2018-12-18T04:30:38.463Z,99.12
2018-12-18T04:33:04.593Z,99.46
2018-12-18T04:35:30.755Z,99.23
2018-12-18T04:37:56.913Z,99.13
2018-12-18T04:40:23.066Z,99.07
2018-12-18T04:42:49.198Z,99.10
2018-12-18T04:45:15.876Z,99.20
2018-12-18T04:47:42.112Z,98.95
2018-12-18T04:50:08.265Z,99.13
2018-12-18T04:52:34.398Z,99.27
2018-12-18T04:55:00.541Z,99.45
2018-12-18T04:57:26.687Z,99.35
2018-12-18T04:59:52.798Z,99.40
2018-12-18T05:02:18.941Z,99.17
2018-12-18T05:04:50.269Z,99.55
2018-12-18T05:07:13.398Z,99.38
2018-12-18T05:09:39.585Z,99.53
2018-12-18T05:12:05.739Z,99.49
2018-12-18T05:14:31.880Z,99.54
2018-12-18T05:16:58.019Z,99.38
2018-12-18T05:19:24.281Z,99.12
2018-12-18T05:21:50.572Z,98.91
2018-12-18T05:24:16.824Z,99.25
2018-12-18T05:26:42.953Z,99.56
2018-12-18T05:29:09.090Z,99.50
2018-12-18T05:31:35.215Z,99.24
2018-12-18T05:34:01.372Z,99.68
2018-12-18T05:36:27.509Z,99.68
2018-12-18T05:38:53.676Z,99.46
2018-12-18T05:41:19.827Z,99.53
2018-12-18T05:43:45.982Z,99.25
2018-12-18T05:46:12.115Z,99.44
2018-12-18T05:48:38.244Z,99.18
2018-12-18T05:51:04.391Z,99.26
2018-12-18T05:53:30.525Z,99.26
2018-12-18T05:55:56.630Z,99.53
2018-12-18T05:58:22.767Z,99.48
2018-12-18T06:00:49.759Z,99.38
2018-12-18T06:03:16.106Z,99.22
2018-12-18T06:05:42.218Z,99.14
2018-12-18T06:08:08.363Z,98.98
2018-12-18T06:10:34.503Z,99.15
2018-12-18T06:13:00.672Z,98.75
2018-12-18T06:15:26.791Z,99.11
2018-12-18T06:17:52.924Z,99.24
2018-12-18T06:20:19.058Z,99.03
2018-12-18T06:22:45.207Z,99.21
2018-12-18T06:25:11.382Z,98.97
2018-12-18T06:27:37.604Z,99.13
2018-12-18T06:30:05.787Z,99.31
2018-12-18T06:32:31.915Z,99.34
2018-12-18T06:34:58.094Z,99.11
2018-12-18T06:37:24.226Z,98.99
2018-12-18T06:39:50.401Z,99.26
2018-12-18T06:42:16.615Z,99.22
2018-12-18T06:44:42.779Z,99.03
2018-12-18T06:47:08.916Z,99.03
2018-12-18T06:49:35.092Z,99.60
2018-12-18T06:52:01.270Z,99.35
2018-12-18T06:54:27.414Z,99.38
2018-12-18T06:56:53.556Z,99.46
2018-12-18T06:59:19.741Z,99.19
2018-12-18T07:01:45.868Z,99.24
2018-12-18T07:04:12.114Z,99.73
2018-12-18T07:06:38.251Z,99.94
2018-12-18T07:09:06.868Z,99.51
2018-12-18T07:11:33.039Z,99.57
2018-12-18T07:13:59.197Z,99.70
2018-12-18T07:16:25.387Z,99.61
2018-12-18T07:18:51.528Z,99.86
2018-12-18T07:21:17.654Z,99.56
2018-12-18T07:23:43.790Z,99.81
2018-12-18T07:26:09.935Z,99.98
2018-12-18T07:28:36.123Z,99.77
2018-12-18T07:31:02.273Z,99.59
2018-12-18T07:33:28.426Z,99.63
2018-12-18T07:35:54.599Z,99.71
2018-12-18T07:38:20.756Z,99.71
2018-12-18T07:40:46.913Z,99.76
2018-12-18T07:43:13.047Z,99.36
2018-12-18T07:45:39.255Z,99.39
2018-12-18T07:48:05.424Z,99.77
2018-12-18T07:50:31.583Z,99.50
2018-12-18T07:52:57.723Z,99.49
2018-12-18T07:55:23.862Z,99.45
2018-12-18T07:57:49.985Z,99.55
2018-12-18T08:00:16.139Z,99.54
2018-12-18T08:02:42.266Z,99.71
2018-12-18T08:05:08.417Z,99.56
2018-12-18T08:07:34.563Z,99.57
2018-12-18T08:10:00.675Z,99.80
2018-12-18T08:12:26.836Z,99.46
2018-12-18T08:14:53.042Z,99.61
2018-12-18T08:17:19.191Z,99.54
2018-12-18T08:19:45.451Z,99.32
2018-12-18T08:22:11.594Z,99.54
2018-12-18T08:24:37.712Z,99.68
2018-12-18T08:27:03.889Z,99.82
2018-12-18T08:29:30.031Z,99.53
2018-12-18T08:31:56.167Z,99.59
2018-12-18T08:34:22.315Z,99.50
2018-12-18T08:36:48.452Z,99.70
2018-12-18T08:39:14.645Z,99.54
2018-12-18T08:41:40.819Z,99.34
2018-12-18T08:44:07.057Z,99.60
2018-12-18T08:46:33.220Z,99.64
2018-12-18T08:49:00.222Z,99.30
2018-12-18T08:51:26.560Z,99.74
2018-12-18T08:53:52.706Z,99.58
2018-12-18T08:56:18.872Z,99.52
2018-12-18T08:58:45.026Z,99.41
2018-12-18T09:01:11.150Z,99.43
2018-12-18T09:03:37.316Z,99.76
2018-12-18T09:06:03.480Z,99.60
2018-12-18T09:08:29.767Z,99.61
2018-12-18T09:10:55.933Z,99.28
2018-12-18T09:13:22.069Z,99.24
2018-12-18T09:15:54.202Z,99.20
2018-12-18T09:18:20.390Z,99.57
2018-12-18T09:20:46.526Z,99.58
2018-12-18T09:23:12.652Z,99.32
2018-12-18T09:25:38.819Z,99.36
2018-12-18T09:28:04.938Z,99.33
2018-12-18T09:30:31.080Z,99.15
2018-12-18T09:32:57.257Z,99.11
2018-12-18T09:35:23.416Z,99.08
2018-12-18T09:37:51.608Z,99.01
2018-12-18T09:40:19.808Z,99.27
2018-12-18T09:42:51.959Z,99.37
2018-12-18T09:45:18.091Z,99.30
2018-12-18T09:47:44.223Z,99.21
2018-12-18T09:50:10.375Z,99.27
2018-12-18T09:52:36.583Z,99.21
2018-12-18T09:55:02.999Z,99.26
2018-12-18T09:57:35.230Z,98.95
2018-12-18T10:00:01.367Z,98.96
2018-12-18T10:02:27.534Z,98.94
2018-12-18T10:04:53.695Z,99.12
2018-12-18T10:07:19.840Z,98.93
2018-12-18T10:09:46.007Z,99.10
2018-12-18T10:12:12.132Z,99.08
2018-12-18T10:14:38.268Z,99.39
2018-12-18T10:17:04.419Z,99.30
2018-12-18T10:19:30.574Z,99.32
2018-12-18T10:21:56.723Z,99.09
2018-12-18T10:24:22.874Z,99.25
2018-12-18T10:26:49.007Z,99.10
2018-12-18T10:29:15.123Z,99.42
2018-12-18T10:31:41.280Z,99.05
2018-12-18T10:34:07.467Z,99.09
2018-12-18T10:36:33.647Z,99.28
2018-12-18T10:38:59.770Z,98.80
2018-12-18T10:41:25.990Z,98.58
2018-12-18T10:43:52.124Z,99.11
2018-12-18T10:46:18.249Z,99.13
2018-12-18T10:48:44.416Z,98.81
2018-12-18T10:51:10.547Z,99.10
2018-12-18T10:53:36.680Z,98.90
2018-12-18T10:56:02.852Z,98.86
2018-12-18T10:58:29.021Z,98.88
2018-12-18T11:03:55.760Z,98.85
2018-12-18T11:06:21.896Z,98.80
2018-12-18T11:08:48.043Z,98.95
2018-12-18T11:11:14.163Z,98.94
2018-12-18T11:13:40.458Z,99.56
2018-12-18T11:16:06.639Z,99.10
2018-12-18T11:18:32.790Z,99.12
2018-12-18T11:20:58.940Z,98.81
2018-12-18T11:23:25.085Z,98.77
2018-12-18T11:25:51.251Z,98.74
2018-12-18T11:28:17.394Z,98.71
2018-12-18T11:30:43.527Z,98.61
2018-12-18T11:33:09.705Z,98.84
2018-12-18T11:35:35.881Z,98.90
2018-12-18T11:38:02.044Z,98.68
2018-12-18T11:40:28.204Z,98.68
2018-12-18T11:42:54.343Z,98.77
2018-12-18T11:45:20.492Z,98.98
2018-12-18T11:47:46.627Z,98.80
2018-12-18T11:50:12.767Z,98.88
2018-12-18T11:52:38.933Z,98.77
2018-12-18T11:55:05.124Z,98.94
2018-12-18T11:57:31.291Z,98.70
2018-12-18T11:59:57.434Z,99.03
2018-12-18T12:02:23.590Z,98.90
2018-12-18T12:04:49.722Z,98.86
2018-12-18T12:07:15.850Z,99.14
2018-12-18T12:09:41.999Z,98.90
2018-12-18T12:12:08.166Z,98.53
2018-12-18T12:14:34.343Z,98.96
2018-12-18T12:17:01.609Z,98.67
2018-12-18T12:19:28.148Z,98.89
2018-12-18T12:21:54.282Z,98.70
2018-12-18T12:24:20.447Z,98.86
2018-12-18T12:26:48.455Z,98.87
2018-12-18T12:29:14.593Z,98.97
2018-12-18T12:31:40.773Z,98.85
2018-12-18T12:34:06.927Z,98.98
2018-12-18T12:36:33.059Z,99.08
2018-12-18T12:38:59.203Z,99.09
2018-12-18T12:41:25.331Z,99.19
2018-12-18T12:43:51.486Z,99.16
2018-12-18T12:46:17.747Z,99.39
2018-12-18T12:48:50.099Z,99.29
2018-12-18T12:51:16.215Z,99.27
2018-12-18T12:53:42.496Z,99.35
2018-12-18T12:56:08.623Z,99.13
2018-12-18T12:58:34.803Z,99.12
2018-12-18T13:01:00.971Z,99.15
2018-12-18T13:03:27.129Z,99.29
2018-12-18T13:05:53.290Z,99.40
2018-12-18T13:08:19.407Z,99.37
2018-12-18T13:10:45.539Z,99.34
2018-12-18T13:13:11.688Z,99.25
2018-12-18T13:15:37.845Z,98.93
2018-12-18T13:18:03.976Z,98.73
2018-12-18T13:20:30.115Z,99.19
2018-12-18T13:22:56.243Z,99.24
2018-12-18T13:25:22.375Z,99.14
2018-12-18T13:27:48.515Z,99.18
2018-12-18T13:30:14.646Z,98.87
2018-12-18T13:32:40.773Z,98.79
2018-12-18T13:35:06.922Z,99.04
2018-12-18T13:37:33.058Z,98.85
2018-12-18T13:39:59.196Z,98.80
2018-12-18T13:42:25.339Z,99.09
2018-12-18T13:44:51.499Z,98.85
2018-12-18T13:47:17.632Z,98.95
2018-12-18T13:49:43.774Z,99.20
2018-12-18T13:52:09.918Z,98.99
2018-12-18T13:54:36.037Z,98.77
2018-12-18T13:57:02.163Z,98.67
2018-12-18T13:59:28.290Z,98.63
2018-12-18T14:01:54.437Z,98.38
2018-12-18T14:04:20.572Z,98.49
2018-12-18T14:06:49.638Z,98.48
2018-12-18T14:09:14.998Z,98.66
2018-12-18T14:11:41.159Z,98.70
2018-12-18T14:14:07.289Z,98.74
2018-12-18T14:16:33.476Z,98.58
2018-12-18T14:18:59.674Z,98.88
2018-12-18T14:21:25.804Z,98.55
2018-12-18T14:23:51.923Z,98.91
2018-12-18T14:26:18.187Z,98.99
2018-12-18T14:28:44.319Z,98.89
2018-12-18T14:31:10.476Z,99.08
2018-12-18T14:33:36.647Z,98.86
2018-12-18T14:36:02.807Z,98.91
2018-12-18T14:38:28.996Z,98.79
2018-12-18T14:40:55.141Z,99.05
2018-12-18T14:43:21.296Z,99.02
2018-12-18T14:45:47.445Z,98.80
2018-12-18T14:48:13.583Z,98.75
2018-12-18T14:50:39.783Z,98.57
2018-12-18T14:53:05.948Z,98.61
2018-12-18T14:55:32.098Z,98.92
2018-12-18T14:57:58.233Z,98.78
2018-12-18T15:00:24.344Z,98.80
2018-12-18T15:02:50.486Z,98.68
2018-12-18T15:05:17.751Z,98.62
2018-12-18T15:07:44.255Z,98.62
2018-12-18T15:10:10.451Z,98.48
2018-12-18T15:12:38.641Z,98.82
2018-12-18T15:15:04.830Z,98.78
2018-12-18T15:17:30.991Z,98.68
2018-12-18T15:19:57.135Z,98.69
2018-12-18T15:22:23.267Z,98.57
2018-12-18T15:24:49.399Z,98.83
2018-12-18T15:27:15.599Z,98.32
2018-12-18T15:29:41.772Z,98.48
2018-12-18T15:32:07.958Z,99.00
2018-12-18T15:34:34.099Z,98.56
2018-12-18T15:37:00.243Z,98.72
2018-12-18T15:39:26.382Z,98.80
2018-12-18T15:41:52.519Z,98.55
2018-12-18T15:44:18.824Z,98.64
2018-12-18T15:46:44.987Z,98.75
2018-12-18T15:49:11.119Z,98.91
2018-12-18T15:51:37.307Z,98.57
2018-12-18T15:54:03.507Z,98.85
2018-12-18T15:56:29.623Z,98.93
2018-12-18T15:58:55.763Z,98.74
2018-12-18T16:01:21.911Z,98.60
2018-12-18T16:03:48.063Z,98.62
2018-12-18T16:06:14.184Z,98.40
2018-12-18T16:08:40.331Z,98.79
2018-12-18T16:11:06.456Z,98.64
2018-12-18T16:13:32.587Z,99.10
2018-12-18T16:15:58.719Z,98.83
2018-12-18T16:18:24.846Z,99.04
2018-12-18T16:20:50.976Z,99.01
2018-12-18T16:23:17.151Z,98.44
2018-12-18T16:25:43.299Z,98.74
2018-12-18T16:28:09.432Z,99.00
2018-12-18T16:30:35.586Z,99.00
2018-12-18T16:33:01.790Z,98.84
2018-12-18T16:35:28.304Z,99.13
2018-12-18T16:37:54.655Z,99.11
2018-12-18T16:40:20.794Z,98.78
2018-12-18T16:42:46.935Z,99.29
2018-12-18T16:45:13.228Z,98.97
2018-12-18T16:47:39.440Z,99.01
2018-12-18T16:50:05.775Z,99.57
2018-12-18T16:52:31.907Z,99.41
2018-12-18T16:54:58.067Z,99.19
2018-12-18T16:57:24.254Z,99.24
2018-12-18T16:59:50.391Z,99.22
2018-12-18T17:02:16.563Z,99.17
2018-12-18T17:04:42.728Z,99.11
2018-12-18T17:07:08.898Z,98.88
2018-12-18T17:09:35.121Z,99.00
2018-12-18T17:12:01.255Z,99.16
2018-12-18T17:14:27.385Z,99.09
2018-12-18T17:16:53.540Z,98.41
2018-12-18T17:19:19.675Z,98.91
2018-12-18T17:21:45.850Z,99.06
2018-12-18T17:24:11.979Z,98.94
2018-12-18T17:26:38.136Z,99.01
2018-12-18T17:29:04.285Z,98.61
2018-12-18T17:31:30.431Z,98.87
2018-12-18T17:33:56.583Z,99.01
2018-12-18T17:36:22.724Z,98.72
2018-12-18T17:38:48.847Z,99.00
2018-12-18T17:41:15.052Z,98.93
2018-12-18T17:43:41.555Z,98.69
2018-12-18T17:46:07.723Z,98.75
2018-12-18T17:48:33.859Z,98.80
2018-12-18T17:50:59.989Z,98.55
2018-12-18T17:53:26.114Z,98.84
2018-12-18T17:55:52.263Z,98.77
2018-12-18T17:58:18.511Z,98.74
2018-12-18T18:00:44.680Z,98.45
2018-12-18T18:03:10.859Z,98.54
2018-12-18T18:05:37.015Z,98.42
2018-12-18T18:08:03.166Z,98.74
2018-12-18T18:10:29.309Z,98.54
2018-12-18T18:12:55.482Z,98.61
2018-12-18T18:15:21.742Z,98.84
2018-12-18T18:17:47.874Z,98.65
2018-12-18T18:20:14.259Z,98.48
2018-12-18T18:22:40.597Z,98.51
2018-12-18T18:25:06.747Z,98.47
2018-12-18T18:27:32.891Z,98.40
2018-12-18T18:29:59.056Z,98.40
2018-12-18T18:32:25.207Z,98.54
2018-12-18T18:34:51.336Z,98.48
2018-12-18T18:37:17.475Z,98.64
2018-12-18T18:39:43.602Z,98.62
2018-12-18T18:42:09.794Z,98.46
2018-12-18T18:44:35.935Z,98.30
2018-12-18T18:47:02.109Z,98.61
2018-12-18T18:49:28.240Z,98.92
2018-12-18T18:51:54.379Z,98.87
2018-12-18T18:54:20.515Z,98.89
2018-12-18T18:56:46.676Z,99.05
2018-12-18T18:59:12.831Z,98.83
2018-12-18T19:01:39.035Z,99.24
2018-12-18T19:04:05.326Z,99.43
2018-12-18T19:06:31.507Z,99.24
2018-12-18T19:08:57.649Z,99.05
2018-12-18T19:11:23.763Z,98.92
2018-12-18T19:13:49.910Z,99.02
2018-12-18T19:16:16.047Z,98.84
2018-12-18T19:18:42.179Z,99.21
2018-12-18T19:21:08.341Z,99.02
2018-12-18T19:23:34.502Z,98.80
2018-12-18T19:26:00.843Z,98.74
2018-12-18T19:28:26.974Z,98.76
2018-12-18T19:30:53.167Z,98.98
2018-12-18T19:33:19.304Z,98.86
2018-12-18T19:35:45.427Z,98.90
2018-12-18T19:38:11.604Z,98.99
2018-12-18T19:40:37.729Z,99.19
2018-12-18T19:43:03.880Z,99.29
2018-12-18T19:45:30.083Z,99.24
2018-12-18T19:47:56.290Z,99.09
2018-12-18T19:50:22.462Z,99.20
2018-12-18T19:52:48.586Z,99.43
2018-12-18T19:55:14.742Z,99.40
2018-12-18T19:57:40.872Z,99.24
2018-12-18T20:00:09.502Z,99.46
2018-12-18T20:02:35.671Z,99.48
2018-12-18T20:05:01.857Z,99.25
2018-12-18T20:07:28.021Z,99.20
2018-12-18T20:09:54.160Z,99.05
2018-12-18T20:12:20.356Z,99.04
2018-12-18T20:14:46.644Z,99.04
2018-12-18T20:17:12.922Z,99.07
2018-12-18T20:19:39.337Z,98.95
2018-12-18T20:22:05.484Z,98.89
2018-12-18T20:24:31.635Z,99.11
2018-12-18T20:26:57.776Z,98.98
2018-12-18T20:29:23.917Z,98.64
2018-12-18T20:31:50.053Z,98.92
2018-12-18T20:34:16.264Z,98.97
2018-12-18T20:36:42.403Z,98.97
2018-12-18T20:39:08.605Z,98.71
2018-12-18T20:41:34.811Z,99.02
2018-12-18T20:44:01.012Z,99.03
2018-12-18T20:46:27.165Z,98.93
2018-12-18T20:48:53.298Z,98.50
2018-12-18T20:51:19.432Z,98.43
2018-12-18T20:53:45.580Z,98.65
2018-12-18T20:56:11.758Z,99.25
2018-12-18T20:58:37.879Z,99.00
2018-12-18T21:01:04.045Z,98.99
2018-12-18T21:03:30.210Z,98.75
2018-12-18T21:05:56.357Z,98.63
2018-12-18T21:08:23.546Z,99.03
2018-12-18T21:10:49.892Z,98.98
2018-12-18T21:13:22.006Z,98.69
2018-12-18T21:15:48.128Z,98.70
2018-12-18T21:18:14.280Z,98.95
2018-12-18T21:20:40.442Z,98.78
2018-12-18T21:23:06.550Z,98.91
2018-12-18T21:25:32.675Z,98.96
2018-12-18T21:27:58.807Z,98.90
2018-12-18T21:30:24.951Z,98.72
2018-12-18T21:32:51.129Z,99.01
2018-12-18T21:35:17.267Z,98.71
2018-12-18T21:37:43.412Z,98.61
2018-12-18T21:40:09.547Z,98.19
2018-12-18T21:42:35.872Z,98.59
2018-12-18T21:45:02.040Z,98.14
2018-12-18T21:47:28.195Z,98.30
2018-12-18T21:49:54.361Z,98.43
2018-12-18T21:52:20.497Z,98.42
2018-12-18T21:54:46.587Z,98.46
2018-12-18T21:57:12.745Z,98.36
2018-12-18T21:59:38.869Z,98.27
2018-12-18T22:02:05.008Z,98.35
2018-12-18T22:04:31.271Z,98.48
2018-12-18T22:06:57.461Z,98.40
2018-12-18T22:09:23.733Z,98.62
2018-12-18T22:11:49.884Z,98.83
2018-12-18T22:14:15.979Z,98.72
2018-12-18T22:16:42.125Z,98.53
2018-12-18T22:19:08.297Z,98.49
2018-12-18T22:21:34.443Z,98.75
2018-12-18T22:24:00.584Z,98.65
2018-12-18T22:26:26.707Z,98.58
2018-12-18T22:28:52.870Z,98.38
2018-12-18T22:31:19.006Z,98.40
2018-12-18T22:33:45.145Z,98.88
2018-12-18T22:36:11.283Z,98.53
2018-12-18T22:38:43.436Z,98.99
2018-12-18T22:41:05.639Z,98.61
2018-12-18T22:43:31.768Z,98.85
2018-12-18T22:45:57.969Z,98.64
2018-12-18T22:48:24.127Z,98.92
2018-12-18T22:50:50.295Z,98.99
2018-12-18T22:53:16.423Z,98.55
2018-12-18T22:55:45.074Z,98.67
2018-12-18T22:58:10.763Z,98.67
2018-12-18T23:03:39.518Z,98.82
2018-12-18T23:06:05.715Z,98.92
2018-12-18T23:08:32.367Z,98.97
2018-12-18T23:10:59.247Z,98.69
2018-12-18T23:13:25.439Z,98.86
2018-12-18T23:15:51.631Z,98.72
2018-12-18T23:18:17.787Z,98.53
2018-12-18T23:20:43.940Z,98.38
2018-12-18T23:23:10.118Z,98.41
2018-12-18T23:25:36.280Z,98.53
2018-12-18T23:28:02.457Z,98.31
2018-12-18T23:30:28.638Z,98.62
2018-12-18T23:32:54.755Z,98.68
2018-12-18T23:35:20.930Z,98.46
2018-12-18T23:37:47.091Z,98.76
2018-12-18T23:40:13.255Z,98.85
2018-12-18T23:42:39.392Z,98.55
2018-12-18T23:45:05.691Z,98.29
2018-12-18T23:47:31.853Z,98.52
2018-12-18T23:49:57.994Z,98.50
2018-12-18T23:52:24.150Z,98.58
2018-12-18T23:54:50.300Z,98.53
2018-12-18T23:57:16.439Z,98.25
2018-12-18T23:59:42.616Z,98.20
